createdAt,value
2023-02-13T00:01:26.165Z,44.53
2023-02-13T00:03:54.641Z,44.05
2023-02-13T00:06:23.216Z,45.28
2023-02-13T00:08:53.064Z,49.28
2023-02-13T00:11:21.735Z,42.33
2023-02-13T00:13:50.183Z,45.10
2023-02-13T00:16:18.967Z,44.83
2023-02-13T00:18:47.377Z,48.33
2023-02-13T00:21:15.783Z,52.00
2023-02-13T00:23:44.241Z,45.30
2023-02-13T00:26:16.679Z,46.17
2023-02-13T00:28:45.567Z,50.80
2023-02-13T00:31:16.782Z,44.78
2023-02-13T00:33:45.789Z,47.25
2023-02-13T00:36:15.817Z,45.53
2023-02-13T00:38:45.046Z,50.35
2023-02-13T00:41:16.717Z,51.80
2023-02-13T00:43:45.794Z,45.80
2023-02-13T00:46:14.230Z,58.05
2023-02-13T00:48:42.794Z,50.60
2023-02-13T00:51:11.642Z,47.40
2023-02-13T00:53:41.284Z,45.25
2023-02-13T00:56:10.248Z,43.65
2023-02-13T00:58:40.326Z,45.08
2023-02-13T01:01:08.728Z,48.28
2023-02-13T01:03:37.158Z,42.13
2023-02-13T01:06:06.590Z,45.08
2023-02-13T01:08:35.619Z,44.03
2023-02-13T01:11:03.904Z,43.78
2023-02-13T01:13:32.539Z,48.47
2023-02-13T01:16:02.855Z,44.10
2023-02-13T01:18:31.647Z,50.17
2023-02-13T01:21:02.737Z,53.13
2023-02-13T01:23:34.811Z,45.03
2023-02-13T01:26:06.371Z,46.35
2023-02-13T01:28:35.702Z,44.00
2023-02-13T01:31:06.611Z,48.58
2023-02-13T01:33:36.124Z,44.55
2023-02-13T01:36:08.975Z,46.22
2023-02-13T01:38:37.403Z,48.40
2023-02-13T01:41:06.198Z,47.05
2023-02-13T01:43:52.634Z,46.88
2023-02-13T01:46:29.722Z,49.53
2023-02-13T01:49:04.160Z,49.95
2023-02-13T01:51:36.174Z,51.22
2023-02-13T01:54:09.202Z,50.20
2023-02-13T01:56:39.770Z,52.88
2023-02-13T01:59:13.497Z,49.72
2023-02-13T02:01:43.648Z,48.13
2023-02-13T02:04:15.719Z,53.92
2023-02-13T02:06:47.784Z,53.67
2023-02-13T02:09:19.628Z,57.00
2023-02-13T02:11:56.575Z,54.40
2023-02-13T02:14:25.048Z,58.17
2023-02-13T02:16:54.933Z,60.05
2023-02-13T02:19:38.069Z,56.38
2023-02-13T02:22:49.052Z,59.90
2023-02-13T02:25:44.677Z,62.50
2023-02-13T02:28:44.967Z,65.30
2023-02-13T02:31:56.368Z,64.40
2023-02-13T02:34:35.413Z,67.20
2023-02-13T02:37:17.550Z,71.90
2023-02-13T02:39:54.677Z,72.10
2023-02-13T02:42:32.853Z,71.07
2023-02-13T02:45:10.046Z,73.22
2023-02-13T02:48:06.663Z,77.13
2023-02-13T02:50:41.014Z,76.43
2023-02-13T02:53:25.770Z,72.93
2023-02-13T02:56:00.249Z,79.10
2023-02-13T02:58:54.049Z,81.20
2023-02-13T03:01:43.842Z,87.15
2023-02-13T03:04:38.731Z,85.60
2023-02-13T03:07:10.296Z,92.78
2023-02-13T03:10:01.122Z,92.32
2023-02-13T03:12:54.938Z,96.40
2023-02-13T03:15:26.802Z,105.30
2023-02-13T03:18:13.564Z,118.60
2023-02-13T03:21:06.922Z,120.47
2023-02-13T03:23:47.112Z,115.70
2023-02-13T03:26:46.266Z,132.43
2023-02-13T03:29:42.750Z,138.23
2023-02-13T03:32:22.038Z,138.98
2023-02-13T03:35:15.784Z,146.00
2023-02-13T03:37:57.383Z,163.77
2023-02-13T03:40:34.727Z,163.13
2023-02-13T03:43:11.041Z,154.20
2023-02-13T03:45:57.132Z,155.38
2023-02-13T03:48:46.812Z,171.38
2023-02-13T03:51:19.101Z,183.83
2023-02-13T03:53:53.852Z,199.93
2023-02-13T03:56:41.886Z,190.50
2023-02-13T03:59:18.325Z,189.90
2023-02-13T04:01:55.859Z,190.07
2023-02-13T04:04:30.731Z,202.60
2023-02-13T04:07:04.060Z,201.23
2023-02-13T04:09:36.250Z,211.43
2023-02-13T04:12:14.123Z,213.10
2023-02-13T04:14:47.830Z,180.55
2023-02-13T04:17:21.098Z,209.40
2023-02-13T04:19:49.827Z,222.33
2023-02-13T04:22:18.350Z,220.77
2023-02-13T04:24:48.348Z,224.20
2023-02-13T04:27:17.595Z,231.83
2023-02-13T04:29:46.231Z,246.07
2023-02-13T04:32:15.427Z,245.93
2023-02-13T04:34:44.361Z,266.27
2023-02-13T04:37:12.861Z,269.40
2023-02-13T04:39:41.296Z,269.60
2023-02-13T04:42:11.105Z,270.87
2023-02-13T04:44:39.489Z,265.30
2023-02-13T04:47:07.945Z,284.07
2023-02-13T04:49:36.373Z,275.03
2023-02-13T04:52:04.890Z,284.67
2023-02-13T04:54:33.320Z,282.47
2023-02-13T04:57:02.196Z,296.25
2023-02-13T04:59:31.933Z,319.13
2023-02-13T05:02:00.321Z,304.53
2023-02-13T05:04:29.833Z,313.43
2023-02-13T05:06:58.239Z,296.97
2023-02-13T05:09:26.780Z,302.73
2023-02-13T05:11:55.769Z,285.05
2023-02-13T05:14:24.545Z,290.30
2023-02-13T05:16:54.491Z,285.83
2023-02-13T05:19:23.029Z,292.00
2023-02-13T05:22:08.661Z,300.23
2023-02-13T05:24:37.083Z,291.07
2023-02-13T05:27:05.576Z,282.80
2023-02-13T05:29:33.914Z,285.90
2023-02-13T05:32:03.822Z,289.43
2023-02-13T05:34:32.238Z,305.23
2023-02-13T05:37:00.747Z,294.80
2023-02-13T05:39:29.704Z,331.63
2023-02-13T05:41:58.096Z,328.73
2023-02-13T05:44:26.521Z,339.17
2023-02-13T05:46:54.875Z,328.30
2023-02-13T05:49:24.855Z,337.00
2023-02-13T05:51:53.323Z,358.93
2023-02-13T05:54:21.853Z,346.37
2023-02-13T05:56:50.212Z,337.83
2023-02-13T05:59:18.768Z,371.00
2023-02-13T06:01:47.199Z,400.23
2023-02-13T06:04:15.616Z,373.33
2023-02-13T06:06:45.650Z,346.23
2023-02-13T06:09:14.146Z,380.87
2023-02-13T06:11:42.530Z,429.60
2023-02-13T06:14:14.066Z,475.63
2023-02-13T06:16:42.602Z,778.90
2023-02-13T06:19:11.214Z,1153.17
2023-02-13T06:21:39.715Z,1342.67
2023-02-13T06:24:10.044Z,1185.53
2023-02-13T06:26:38.494Z,1359.57
2023-02-13T06:29:09.351Z,768.00
2023-02-13T06:31:37.985Z,1002.70
2023-02-13T06:34:06.439Z,1264.10
2023-02-13T06:36:41.886Z,937.03
2023-02-13T06:39:12.630Z,955.80
2023-02-13T06:41:41.200Z,691.87
2023-02-13T06:44:09.891Z,493.33
2023-02-13T06:46:38.414Z,1271.93
2023-02-13T06:49:06.831Z,388.47
2023-02-13T06:51:35.250Z,450.37
2023-02-13T06:54:05.412Z,1490.30
2023-02-13T06:56:35.730Z,1330.70
2023-02-13T06:59:05.216Z,1218.77
2023-02-13T07:01:33.643Z,1200.23
2023-02-13T07:04:02.409Z,561.90
2023-02-13T07:06:33.566Z,519.33
2023-02-13T07:09:02.811Z,1872.30
2023-02-13T07:11:31.262Z,633.70
2023-02-13T07:14:37.947Z,737.77
2023-02-13T07:17:07.894Z,970.47
2023-02-13T07:19:36.178Z,1305.10
2023-02-13T07:22:06.650Z,582.90
2023-02-13T07:24:35.526Z,880.17
2023-02-13T07:27:03.939Z,556.67
2023-02-13T07:29:36.609Z,747.50
2023-02-13T07:32:05.244Z,925.63
2023-02-13T07:34:35.081Z,1343.37
2023-02-13T07:37:04.614Z,1040.90
2023-02-13T07:39:33.093Z,1287.77
2023-02-13T07:42:02.474Z,1144.67
2023-02-13T07:45:15.652Z,1233.50
2023-02-13T07:47:44.543Z,1228.17
2023-02-13T07:50:14.610Z,909.23
2023-02-13T07:52:46.578Z,960.20
2023-02-13T07:55:14.946Z,908.40
2023-02-13T07:57:43.429Z,1009.67
2023-02-13T08:00:13.158Z,1006.97
2023-02-13T08:02:41.498Z,1019.20
2023-02-13T08:05:10.349Z,967.53
2023-02-13T08:07:40.215Z,826.17
2023-02-13T08:10:28.478Z,854.20
2023-02-13T08:12:56.855Z,825.73
2023-02-13T08:15:25.975Z,896.13
2023-02-13T08:17:54.596Z,747.70
2023-02-13T08:20:24.110Z,821.47
2023-02-13T08:22:53.866Z,905.63
2023-02-13T08:25:22.285Z,837.13
2023-02-13T08:27:50.606Z,833.10
2023-02-13T08:30:19.083Z,771.17
2023-02-13T08:32:54.190Z,843.77
2023-02-13T08:35:26.932Z,840.27
2023-02-13T08:37:56.847Z,817.53
2023-02-13T08:40:26.090Z,781.80
2023-02-13T08:42:56.396Z,743.70
2023-02-13T08:45:25.893Z,754.70
2023-02-13T08:47:58.033Z,545.97
2023-02-13T08:50:27.274Z,736.23
2023-02-13T08:52:57.135Z,716.73
2023-02-13T08:55:27.157Z,723.80
2023-02-13T08:57:55.576Z,579.73
2023-02-13T09:00:24.011Z,526.07
2023-02-13T09:02:52.481Z,568.43
2023-02-13T09:05:21.191Z,471.33
2023-02-13T09:07:49.712Z,458.10
2023-02-13T09:10:19.841Z,529.50
2023-02-13T09:12:54.086Z,306.80
2023-02-13T09:15:22.996Z,426.48
2023-02-13T09:17:51.595Z,300.48
2023-02-13T09:20:20.398Z,329.02
2023-02-13T09:22:48.767Z,421.42
2023-02-13T09:25:20.277Z,487.95
2023-02-13T09:27:48.906Z,290.52
2023-02-13T09:30:23.555Z,266.25
2023-02-13T09:32:52.810Z,228.95
2023-02-13T09:35:21.705Z,199.68
2023-02-13T09:37:50.214Z,175.80
2023-02-13T09:40:36.375Z,156.90
2023-02-13T09:43:09.300Z,155.70
2023-02-13T09:45:39.248Z,159.70
2023-02-13T09:48:11.752Z,165.60
2023-02-13T09:50:40.477Z,157.32
2023-02-13T09:53:08.858Z,151.30
2023-02-13T09:55:53.105Z,143.98
2023-02-13T09:58:35.169Z,148.80
2023-02-13T10:01:07.084Z,135.63
2023-02-13T10:03:43.168Z,122.53
2023-02-13T10:06:19.055Z,116.38
2023-02-13T10:09:00.662Z,108.85
2023-02-13T10:12:06.732Z,113.45
2023-02-13T10:14:46.013Z,119.63
2023-02-13T10:17:19.027Z,112.63
2023-02-13T10:19:51.548Z,105.93
2023-02-13T10:22:22.770Z,112.45
2023-02-13T10:25:02.167Z,89.20
2023-02-13T10:27:36.302Z,88.70
2023-02-13T10:30:09.724Z,87.97
2023-02-13T10:32:45.454Z,90.28
2023-02-13T10:35:28.588Z,80.05
2023-02-13T10:38:00.765Z,80.18
2023-02-13T10:40:33.848Z,71.68
2023-02-13T10:43:10.087Z,72.70
2023-02-13T10:45:58.980Z,67.32
2023-02-13T10:48:44.551Z,53.85
2023-02-13T10:51:20.561Z,55.92
2023-02-13T10:54:00.453Z,45.60
2023-02-13T10:56:33.241Z,42.67
2023-02-13T10:59:20.189Z,41.22
2023-02-13T11:01:52.861Z,35.78
2023-02-13T11:04:21.657Z,45.25
2023-02-13T11:06:57.260Z,43.88
2023-02-13T11:09:26.351Z,45.80
2023-02-13T11:11:55.280Z,36.47
2023-02-13T11:14:26.800Z,34.20
2023-02-13T11:16:58.876Z,34.78
2023-02-13T11:19:32.762Z,33.75
2023-02-13T11:22:06.066Z,28.75
2023-02-13T11:24:34.912Z,27.10
2023-02-13T11:27:08.832Z,22.50
2023-02-13T11:29:53.984Z,28.65
2023-02-13T11:32:25.293Z,27.00
2023-02-13T11:34:56.181Z,29.42
2023-02-13T11:37:27.270Z,24.95
2023-02-13T11:39:57.337Z,28.05
2023-02-13T11:42:31.775Z,27.80
2023-02-13T11:45:05.004Z,33.38
2023-02-13T11:47:40.600Z,34.85
2023-02-13T11:50:23.448Z,41.50
2023-02-13T11:52:58.256Z,44.65
2023-02-13T11:55:30.112Z,40.42
2023-02-13T11:58:01.301Z,44.15
2023-02-13T12:00:40.155Z,44.80
2023-02-13T12:03:30.345Z,34.90
2023-02-13T12:06:04.598Z,33.38
2023-02-13T12:08:35.123Z,36.00
2023-02-13T12:11:18.476Z,37.08
2023-02-13T12:13:47.076Z,34.00
2023-02-13T12:16:28.888Z,30.08
2023-02-13T12:19:01.429Z,28.33
2023-02-13T12:21:43.387Z,28.52
2023-02-13T12:24:22.324Z,30.88
2023-02-13T12:26:54.708Z,31.73
2023-02-13T12:29:51.752Z,30.88
2023-02-13T12:32:22.558Z,23.63
2023-02-13T12:35:36.790Z,29.98
2023-02-13T12:38:14.074Z,29.65
2023-02-13T12:41:15.870Z,28.95
2023-02-13T12:44:21.368Z,25.63
2023-02-13T12:46:59.573Z,22.73
2023-02-13T12:49:56.231Z,30.35
2023-02-13T12:52:35.471Z,23.77
2023-02-13T12:55:37.068Z,22.40
2023-02-13T12:58:20.214Z,24.15
2023-02-13T13:00:58.805Z,21.77
2023-02-13T13:03:40.722Z,21.30
2023-02-13T13:06:31.204Z,22.13
2023-02-13T13:09:12.016Z,23.88
2023-02-13T13:12:05.077Z,23.67
2023-02-13T13:14:41.246Z,23.55
2023-02-13T13:17:24.563Z,22.98
2023-02-13T13:20:02.484Z,23.45
2023-02-13T13:22:38.219Z,21.88
2023-02-13T13:25:20.201Z,23.23
2023-02-13T13:27:53.211Z,22.92
2023-02-13T13:30:25.233Z,24.17
2023-02-13T13:33:02.915Z,24.55
2023-02-13T13:35:31.972Z,24.00
2023-02-13T13:38:08.058Z,21.00
2023-02-13T13:40:44.773Z,22.95
2023-02-13T13:43:24.757Z,23.52
2023-02-13T13:46:06.926Z,24.50
2023-02-13T13:48:54.374Z,21.70
2023-02-13T13:51:23.297Z,27.33
2023-02-13T13:54:23.728Z,21.30
2023-02-13T13:57:11.897Z,23.23
2023-02-13T14:00:27.315Z,22.58
2023-02-13T14:03:24.799Z,24.77
2023-02-13T14:06:05.727Z,22.67
2023-02-13T14:09:08.549Z,23.08
2023-02-13T14:11:40.811Z,22.23
2023-02-13T14:14:49.213Z,23.98
2023-02-13T14:17:18.289Z,25.58
2023-02-13T14:19:53.295Z,24.98
2023-02-13T14:22:35.421Z,23.10
2023-02-13T14:25:06.485Z,21.77
2023-02-13T14:27:38.430Z,22.38
2023-02-13T14:30:26.974Z,27.23
2023-02-13T14:32:56.154Z,21.23
2023-02-13T14:35:28.177Z,20.33
2023-02-13T14:37:59.318Z,23.33
2023-02-13T14:40:48.917Z,26.80
2023-02-13T14:43:37.272Z,19.35
2023-02-13T14:46:24.663Z,21.58
2023-02-13T14:48:58.259Z,18.98
2023-02-13T14:51:33.343Z,21.23
2023-02-13T14:54:06.920Z,22.52
2023-02-13T14:56:35.757Z,27.00
2023-02-13T14:59:14.766Z,23.33
2023-02-13T15:01:51.863Z,20.52
2023-02-13T15:04:28.602Z,21.42
2023-02-13T15:07:01.522Z,22.73
2023-02-13T15:09:34.376Z,21.27
2023-02-13T15:12:03.114Z,22.00
2023-02-13T15:14:40.809Z,22.27
2023-02-13T15:17:17.989Z,21.27
2023-02-13T15:19:48.702Z,22.75
2023-02-13T15:22:21.882Z,24.17
2023-02-13T15:24:51.527Z,20.30
2023-02-13T15:27:23.800Z,21.40
2023-02-13T15:29:59.074Z,22.95
2023-02-13T15:32:34.897Z,22.73
2023-02-13T15:35:11.450Z,19.45
2023-02-13T15:37:40.241Z,22.38
2023-02-13T15:40:17.432Z,20.60
2023-02-13T15:42:46.599Z,20.75
2023-02-13T15:45:19.067Z,22.45
2023-02-13T15:47:48.763Z,22.77
2023-02-13T15:50:19.427Z,23.05
2023-02-13T15:52:48.721Z,21.83
2023-02-13T15:55:23.022Z,26.92
2023-02-13T15:57:52.593Z,21.20
2023-02-13T16:00:27.109Z,23.05
2023-02-13T16:02:58.101Z,25.70
2023-02-13T16:05:39.351Z,20.17
2023-02-13T16:08:32.538Z,23.70
2023-02-13T16:11:21.707Z,24.65
2023-02-13T16:14:06.322Z,21.33
2023-02-13T16:16:50.636Z,20.67
2023-02-13T16:19:33.153Z,20.80
2023-02-13T16:22:06.228Z,22.88
2023-02-13T16:24:35.303Z,21.77
2023-02-13T16:27:13.615Z,25.58
2023-02-13T16:29:51.106Z,23.45
2023-02-13T16:32:28.825Z,22.73
2023-02-13T16:34:57.864Z,23.33
2023-02-13T16:37:57.176Z,23.33
2023-02-13T16:40:38.456Z,24.20
2023-02-13T16:43:39.651Z,26.83
2023-02-13T16:46:43.285Z,28.17
2023-02-13T16:49:25.751Z,23.52
2023-02-13T16:52:00.912Z,24.52
2023-02-13T16:55:03.451Z,26.60
2023-02-13T16:57:33.906Z,27.00
2023-02-13T17:00:49.605Z,23.58
2023-02-13T17:03:17.931Z,25.95
2023-02-13T17:05:47.802Z,25.30
2023-02-13T17:09:02.485Z,27.63
2023-02-13T17:11:31.174Z,25.75
2023-02-13T17:17:34.776Z,31.83
2023-02-13T17:20:17.814Z,27.30
2023-02-13T17:22:50.361Z,29.27
2023-02-13T17:25:23.859Z,31.20
2023-02-13T17:27:58.612Z,28.25
2023-02-13T17:30:30.689Z,29.42
2023-02-13T17:40:21.140Z,35.08
2023-02-13T17:42:53.147Z,36.15
2023-02-13T17:45:23.070Z,41.83
2023-02-13T17:51:46.348Z,41.20
2023-02-13T17:54:14.663Z,38.78
2023-02-13T17:57:05.014Z,40.85
2023-02-13T17:59:33.362Z,45.22
2023-02-13T18:02:06.143Z,46.55
2023-02-13T18:04:39.116Z,49.58
2023-02-13T18:07:07.722Z,50.42
2023-02-13T18:09:36.045Z,57.55
2023-02-13T18:12:25.425Z,58.15
2023-02-13T18:14:54.878Z,56.42
2023-02-13T18:17:23.855Z,55.20
2023-02-13T18:19:53.393Z,53.33
2023-02-13T18:22:21.761Z,57.35
2023-02-13T18:24:50.396Z,57.22
2023-02-13T18:27:40.598Z,48.65
2023-02-13T18:30:10.426Z,55.58
2023-02-13T18:32:38.969Z,60.70
2023-02-13T18:44:28.408Z,61.47
2023-02-13T18:48:46.574Z,58.15
2023-02-13T18:51:14.951Z,59.42
2023-02-13T18:53:43.572Z,62.15
2023-02-13T18:56:35.215Z,62.70
2023-02-13T18:59:05.140Z,64.95
2023-02-13T19:01:35.493Z,66.15
2023-02-13T19:04:13.907Z,67.32
2023-02-13T19:06:43.770Z,73.93
2023-02-13T19:09:12.364Z,79.28
2023-02-13T19:15:50.261Z,86.63
2023-02-13T19:18:20.004Z,82.40
2023-02-13T19:25:08.401Z,74.03
2023-02-13T19:32:19.840Z,94.80
2023-02-13T19:35:30.202Z,86.87
2023-02-13T19:41:59.983Z,93.90
2023-02-13T19:45:27.773Z,103.00
2023-02-13T19:47:56.321Z,104.72
2023-02-13T19:50:24.855Z,114.95
2023-02-13T19:57:00.458Z,118.33
2023-02-13T19:59:30.903Z,119.17
2023-02-13T20:02:40.537Z,116.10
2023-02-13T20:05:09.996Z,111.93
2023-02-13T20:07:38.450Z,113.03
2023-02-13T20:10:39.872Z,130.43
2023-02-13T20:13:08.255Z,127.07
2023-02-13T20:15:42.757Z,99.38
2023-02-13T20:19:13.762Z,110.27
2023-02-13T20:21:43.488Z,107.50
2023-02-13T20:24:13.026Z,120.68
2023-02-13T20:27:42.864Z,115.40
2023-02-13T20:30:14.054Z,148.30
2023-02-13T20:32:44.099Z,142.80
2023-02-13T20:35:19.008Z,137.40
2023-02-13T20:38:30.047Z,133.63
2023-02-13T20:41:00.390Z,138.43
2023-02-13T20:43:32.866Z,151.53
2023-02-13T20:47:17.962Z,139.57
2023-02-13T20:49:47.721Z,146.73
2023-02-13T20:52:16.119Z,139.53
2023-02-13T20:54:44.679Z,154.87
2023-02-13T20:57:14.492Z,168.93
2023-02-13T20:59:45.740Z,174.37
2023-02-13T21:02:14.499Z,152.77
2023-02-13T21:04:43.523Z,155.67
2023-02-13T21:07:13.253Z,166.63
2023-02-13T21:09:41.781Z,154.40
2023-02-13T21:12:10.199Z,156.50
2023-02-13T21:14:39.705Z,147.20
2023-02-13T21:17:09.610Z,150.77
2023-02-13T21:19:38.049Z,153.60
2023-02-13T21:22:12.316Z,154.30
2023-02-13T21:24:44.012Z,142.13
2023-02-13T21:27:12.615Z,165.73
2023-02-13T21:29:41.144Z,151.07
2023-02-13T21:32:09.638Z,158.10
2023-02-13T21:34:38.204Z,160.40
2023-02-13T21:37:06.747Z,167.97
2023-02-13T21:39:36.294Z,160.73
2023-02-13T21:42:06.146Z,159.77
2023-02-13T21:44:34.613Z,191.30
2023-02-13T21:47:04.080Z,177.80
2023-02-13T21:49:33.993Z,196.07
2023-02-13T21:52:03.580Z,170.57
2023-02-13T21:54:32.053Z,201.73
2023-02-13T21:57:00.529Z,197.87
2023-02-13T21:59:31.341Z,182.23
2023-02-13T22:02:20.663Z,184.23
2023-02-13T22:04:49.285Z,185.10
2023-02-13T22:07:17.620Z,164.87
2023-02-13T22:09:45.996Z,158.83
2023-02-13T22:12:14.341Z,151.63
2023-02-13T22:14:44.274Z,160.47
2023-02-13T22:17:12.652Z,151.73
2023-02-13T22:19:40.980Z,166.17
2023-02-13T22:22:09.903Z,166.13
2023-02-13T22:24:38.221Z,191.77
2023-02-13T22:27:07.744Z,165.53
2023-02-13T22:29:37.004Z,142.40
2023-02-13T22:32:06.909Z,163.67
2023-02-13T22:34:35.526Z,170.53
2023-02-13T22:37:03.878Z,190.03
2023-02-13T22:39:32.228Z,195.33
2023-02-13T22:42:00.541Z,190.00
2023-02-13T22:44:31.913Z,163.73
2023-02-13T22:47:00.285Z,219.13
2023-02-13T22:49:30.124Z,209.60
2023-02-13T22:51:58.625Z,204.43
2023-02-13T22:54:27.039Z,196.30
2023-02-13T22:56:55.416Z,203.03
2023-02-13T22:59:26.143Z,175.00
2023-02-13T23:01:54.472Z,190.23
2023-02-13T23:04:22.883Z,209.03
2023-02-13T23:06:52.726Z,216.23
2023-02-13T23:09:21.128Z,205.53
2023-02-13T23:12:07.176Z,197.63
2023-02-13T23:14:35.852Z,229.33
2023-02-13T23:17:22.630Z,231.40
2023-02-13T23:19:50.962Z,223.40
2023-02-13T23:22:20.917Z,237.57
2023-02-13T23:24:49.353Z,189.80
2023-02-13T23:27:17.727Z,199.30
2023-02-13T23:29:46.144Z,223.40
2023-02-13T23:32:14.747Z,209.93
2023-02-13T23:34:43.414Z,187.03
2023-02-13T23:37:11.758Z,197.77
2023-02-13T23:39:41.543Z,170.40
2023-02-13T23:42:09.932Z,179.43
2023-02-13T23:44:38.325Z,168.73
2023-02-13T23:47:06.912Z,152.63
2023-02-13T23:49:35.244Z,157.47
2023-02-13T23:52:05.422Z,148.80
2023-02-13T23:54:33.826Z,164.10
2023-02-13T23:57:03.585Z,163.87
2023-02-13T23:59:32.097Z,201.30
